sensor_id;sensor_type;location;lat;lon;timestamp;temperature;humidity
70246;SHT30;57637;49.272;8.590;2023-06-14T00:01:43;17.02;53.42
70246;SHT30;57637;49.272;8.590;2023-06-14T00:04:10;17.04;53.23
70246;SHT30;57637;49.272;8.590;2023-06-14T00:06:36;17.20;52.80
70246;SHT30;57637;49.272;8.590;2023-06-14T00:09:03;17.11;52.92
70246;SHT30;57637;49.272;8.590;2023-06-14T00:11:29;17.14;52.75
70246;SHT30;57637;49.272;8.590;2023-06-14T00:13:55;17.17;52.66
70246;SHT30;57637;49.272;8.590;2023-06-14T00:16:21;17.14;52.73
70246;SHT30;57637;49.272;8.590;2023-06-14T00:18:46;17.15;52.81
70246;SHT30;57637;49.272;8.590;2023-06-14T00:21:12;17.15;52.68
70246;SHT30;57637;49.272;8.590;2023-06-14T00:23:37;17.13;52.81
70246;SHT30;57637;49.272;8.590;2023-06-14T00:26:03;17.21;52.59
70246;SHT30;57637;49.272;8.590;2023-06-14T00:28:28;17.28;52.23
70246;SHT30;57637;49.272;8.590;2023-06-14T00:30:54;17.37;52.08
70246;SHT30;57637;49.272;8.590;2023-06-14T00:33:19;17.35;52.20
70246;SHT30;57637;49.272;8.590;2023-06-14T00:35:45;17.44;52.09
70246;SHT30;57637;49.272;8.590;2023-06-14T00:38:10;17.46;51.85
70246;SHT30;57637;49.272;8.590;2023-06-14T00:40:35;17.56;51.59
70246;SHT30;57637;49.272;8.590;2023-06-14T00:43:01;17.61;51.64
70246;SHT30;57637;49.272;8.590;2023-06-14T00:45:26;17.76;51.18
70246;SHT30;57637;49.272;8.590;2023-06-14T00:47:52;17.79;51.35
70246;SHT30;57637;49.272;8.590;2023-06-14T00:50:20;17.86;50.96
70246;SHT30;57637;49.272;8.590;2023-06-14T00:52:46;17.95;50.73
70246;SHT30;57637;49.272;8.590;2023-06-14T00:55:12;17.92;50.78
70246;SHT30;57637;49.272;8.590;2023-06-14T00:57:37;18.02;50.66
70246;SHT30;57637;49.272;8.590;2023-06-14T01:00:03;17.92;50.83
70246;SHT30;57637;49.272;8.590;2023-06-14T01:02:33;17.86;50.99
70246;SHT30;57637;49.272;8.590;2023-06-14T01:04:59;17.83;51.10
70246;SHT30;57637;49.272;8.590;2023-06-14T01:08:14;17.76;51.37
70246;SHT30;57637;49.272;8.590;2023-06-14T01:10:31;17.75;51.35
70246;SHT30;57637;49.272;8.590;2023-06-14T01:15:51;17.74;51.57
70246;SHT30;57637;49.272;8.590;2023-06-14T01:18:17;17.69;51.62
70246;SHT30;57637;49.272;8.590;2023-06-14T01:20:43;17.61;51.82
70246;SHT30;57637;49.272;8.590;2023-06-14T01:23:10;17.58;51.89
70246;SHT30;57637;49.272;8.590;2023-06-14T01:25:39;17.62;52.02
70246;SHT30;57637;49.272;8.590;2023-06-14T01:28:06;17.48;52.24
70246;SHT30;57637;49.272;8.590;2023-06-14T01:30:35;17.49;52.17
70246;SHT30;57637;49.272;8.590;2023-06-14T01:33:02;17.49;52.42
70246;SHT30;57637;49.272;8.590;2023-06-14T01:35:29;17.41;52.44
70246;SHT30;57637;49.272;8.590;2023-06-14T01:37:55;17.48;52.60
70246;SHT30;57637;49.272;8.590;2023-06-14T01:40:21;17.41;52.50
70246;SHT30;57637;49.272;8.590;2023-06-14T01:42:49;17.41;52.41
70246;SHT30;57637;49.272;8.590;2023-06-14T01:45:15;17.41;52.66
70246;SHT30;57637;49.272;8.590;2023-06-14T01:47:42;17.41;52.52
70246;SHT30;57637;49.272;8.590;2023-06-14T01:50:10;17.49;52.15
70246;SHT30;57637;49.272;8.590;2023-06-14T01:52:36;17.49;52.37
70246;SHT30;57637;49.272;8.590;2023-06-14T01:55:03;17.51;52.25
70246;SHT30;57637;49.272;8.590;2023-06-14T01:57:31;17.65;51.92
70246;SHT30;57637;49.272;8.590;2023-06-14T01:59:57;17.48;52.11
70246;SHT30;57637;49.272;8.590;2023-06-14T02:02:22;17.49;52.48
70246;SHT30;57637;49.272;8.590;2023-06-14T02:04:47;17.46;52.31
70246;SHT30;57637;49.272;8.590;2023-06-14T02:07:13;17.41;52.34
70246;SHT30;57637;49.272;8.590;2023-06-14T02:09:40;17.66;51.90
70246;SHT30;57637;49.272;8.590;2023-06-14T02:12:06;17.48;52.10
70246;SHT30;57637;49.272;8.590;2023-06-14T02:14:31;17.25;53.20
70246;SHT30;57637;49.272;8.590;2023-06-14T02:16:58;16.81;55.10
70246;SHT30;57637;49.272;8.590;2023-06-14T02:19:26;16.48;55.96
70246;SHT30;57637;49.272;8.590;2023-06-14T02:21:51;16.19;56.75
70246;SHT30;57637;49.272;8.590;2023-06-14T02:24:17;16.02;57.31
70246;SHT30;57637;49.272;8.590;2023-06-14T02:26:42;15.88;57.65
70246;SHT30;57637;49.272;8.590;2023-06-14T02:29:07;15.75;57.97
70246;SHT30;57637;49.272;8.590;2023-06-14T02:31:37;15.78;57.86
70246;SHT30;57637;49.272;8.590;2023-06-14T02:34:03;15.74;57.81
70246;SHT30;57637;49.272;8.590;2023-06-14T02:36:29;15.71;58.22
70246;SHT30;57637;49.272;8.590;2023-06-14T02:38:57;15.70;58.17
70246;SHT30;57637;49.272;8.590;2023-06-14T02:41:23;16.05;56.54
70246;SHT30;57637;49.272;8.590;2023-06-14T02:43:49;16.66;54.87
70246;SHT30;57637;49.272;8.590;2023-06-14T02:46:15;17.31;52.98
70246;SHT30;57637;49.272;8.590;2023-06-14T02:48:40;17.48;52.92
70246;SHT30;57637;49.272;8.590;2023-06-14T02:51:06;17.62;51.84
70246;SHT30;57637;49.272;8.590;2023-06-14T02:53:33;17.69;51.80
70246;SHT30;57637;49.272;8.590;2023-06-14T02:55:59;17.64;52.27
70246;SHT30;57637;49.272;8.590;2023-06-14T02:58:24;17.71;51.23
70246;SHT30;57637;49.272;8.590;2023-06-14T03:00:50;17.49;51.87
70246;SHT30;57637;49.272;8.590;2023-06-14T03:03:17;17.54;51.88
70246;SHT30;57637;49.272;8.590;2023-06-14T03:05:44;17.25;52.90
70246;SHT30;57637;49.272;8.590;2023-06-14T03:08:14;16.60;55.29
70246;SHT30;57637;49.272;8.590;2023-06-14T03:10:48;16.33;55.89
70246;SHT30;57637;49.272;8.590;2023-06-14T03:13:14;16.12;56.79
70246;SHT30;57637;49.272;8.590;2023-06-14T03:15:46;16.32;56.97
70246;SHT30;57637;49.272;8.590;2023-06-14T03:18:11;16.38;57.02
70246;SHT30;57637;49.272;8.590;2023-06-14T03:20:40;16.32;56.97
70246;SHT30;57637;49.272;8.590;2023-06-14T03:23:06;16.19;57.34
70246;SHT30;57637;49.272;8.590;2023-06-14T03:25:32;16.19;57.48
70246;SHT30;57637;49.272;8.590;2023-06-14T03:28:03;16.18;57.38
70246;SHT30;57637;49.272;8.590;2023-06-14T03:30:29;16.21;57.46
70246;SHT30;57637;49.272;8.590;2023-06-14T03:32:55;16.13;58.30
70246;SHT30;57637;49.272;8.590;2023-06-14T03:35:21;15.87;59.44
70246;SHT30;57637;49.272;8.590;2023-06-14T03:37:47;15.61;60.36
70246;SHT30;57637;49.272;8.590;2023-06-14T03:40:14;15.41;61.35
70246;SHT30;57637;49.272;8.590;2023-06-14T03:42:42;15.46;61.47
70246;SHT30;57637;49.272;8.590;2023-06-14T03:45:08;15.55;61.79
70246;SHT30;57637;49.272;8.590;2023-06-14T03:47:34;15.64;61.91
70246;SHT30;57637;49.272;8.590;2023-06-14T03:50:01;15.87;61.68
70246;SHT30;57637;49.272;8.590;2023-06-14T03:52:29;16.13;61.21
70246;SHT30;57637;49.272;8.590;2023-06-14T03:54:56;16.55;60.18
70246;SHT30;57637;49.272;8.590;2023-06-14T03:57:22;16.84;59.02
70246;SHT30;57637;49.272;8.590;2023-06-14T03:59:48;16.94;58.48
70246;SHT30;57637;49.272;8.590;2023-06-14T04:02:13;17.32;57.42
70246;SHT30;57637;49.272;8.590;2023-06-14T04:04:41;17.81;56.13
70246;SHT30;57637;49.272;8.590;2023-06-14T04:07:12;17.93;55.92
70246;SHT30;57637;49.272;8.590;2023-06-14T04:09:38;17.76;56.30
70246;SHT30;57637;49.272;8.590;2023-06-14T04:12:04;18.51;54.78
70246;SHT30;57637;49.272;8.590;2023-06-14T04:14:39;17.61;56.84
70246;SHT30;57637;49.272;8.590;2023-06-14T04:17:05;18.44;54.85
70246;SHT30;57637;49.272;8.590;2023-06-14T04:19:30;18.65;54.37
70246;SHT30;57637;49.272;8.590;2023-06-14T04:21:57;18.91;54.45
70246;SHT30;57637;49.272;8.590;2023-06-14T04:24:24;19.23;53.67
70246;SHT30;57637;49.272;8.590;2023-06-14T04:26:56;19.73;52.46
70246;SHT30;57637;49.272;8.590;2023-06-14T04:29:23;20.18;51.23
70246;SHT30;57637;49.272;8.590;2023-06-14T04:31:53;20.54;50.16
70246;SHT30;57637;49.272;8.590;2023-06-14T04:34:19;20.64;50.08
70246;SHT30;57637;49.272;8.590;2023-06-14T04:36:46;20.85;50.19
70246;SHT30;57637;49.272;8.590;2023-06-14T04:39:21;20.51;50.88
70246;SHT30;57637;49.272;8.590;2023-06-14T04:41:47;20.16;51.50
70246;SHT30;57637;49.272;8.590;2023-06-14T04:44:12;20.01;52.11
70246;SHT30;57637;49.272;8.590;2023-06-14T04:46:38;19.92;52.56
70246;SHT30;57637;49.272;8.590;2023-06-14T04:49:14;19.93;52.62
70246;SHT30;57637;49.272;8.590;2023-06-14T04:51:43;20.03;52.56
70246;SHT30;57637;49.272;8.590;2023-06-14T04:54:11;20.00;52.80
70246;SHT30;57637;49.272;8.590;2023-06-14T04:56:38;20.01;52.72
70246;SHT30;57637;49.272;8.590;2023-06-14T04:59:04;20.07;52.91
70246;SHT30;57637;49.272;8.590;2023-06-14T05:01:30;20.13;53.07
70246;SHT30;57637;49.272;8.590;2023-06-14T05:03:57;20.67;51.98
70246;SHT30;57637;49.272;8.590;2023-06-14T05:06:25;20.85;51.39
70246;SHT30;57637;49.272;8.590;2023-06-14T05:08:52;21.13;50.86
70246;SHT30;57637;49.272;8.590;2023-06-14T05:11:18;21.30;50.23
70246;SHT30;57637;49.272;8.590;2023-06-14T05:13:43;21.46;50.71
70246;SHT30;57637;49.272;8.590;2023-06-14T05:16:10;21.63;50.02
70246;SHT30;57637;49.272;8.590;2023-06-14T05:18:36;21.23;51.01
70246;SHT30;57637;49.272;8.590;2023-06-14T05:21:02;21.47;50.96
70246;SHT30;57637;49.272;8.590;2023-06-14T05:23:29;22.08;50.06
70246;SHT30;57637;49.272;8.590;2023-06-14T05:25:55;22.42;49.44
70246;SHT30;57637;49.272;8.590;2023-06-14T05:28:21;22.59;48.17
70246;SHT30;57637;49.272;8.590;2023-06-14T05:30:47;22.72;47.97
70246;SHT30;57637;49.272;8.590;2023-06-14T05:33:12;22.93;48.03
70246;SHT30;57637;49.272;8.590;2023-06-14T05:35:38;23.19;47.56
70246;SHT30;57637;49.272;8.590;2023-06-14T05:38:03;23.23;47.36
70246;SHT30;57637;49.272;8.590;2023-06-14T05:40:28;23.58;45.71
70246;SHT30;57637;49.272;8.590;2023-06-14T05:42:54;23.60;45.63
70246;SHT30;57637;49.272;8.590;2023-06-14T05:45:19;23.23;44.72
70246;SHT30;57637;49.272;8.590;2023-06-14T05:47:45;23.27;43.25
70246;SHT30;57637;49.272;8.590;2023-06-14T05:50:10;23.22;44.99
70246;SHT30;57637;49.272;8.590;2023-06-14T05:52:36;23.24;44.41
70246;SHT30;57637;49.272;8.590;2023-06-14T05:55:02;23.64;42.58
70246;SHT30;57637;49.272;8.590;2023-06-14T05:57:28;23.57;42.75
70246;SHT30;57637;49.272;8.590;2023-06-14T05:59:53;23.78;43.06
70246;SHT30;57637;49.272;8.590;2023-06-14T06:02:19;23.61;42.90
70246;SHT30;57637;49.272;8.590;2023-06-14T06:04:44;23.39;44.30
70246;SHT30;57637;49.272;8.590;2023-06-14T06:07:10;24.06;41.90
70246;SHT30;57637;49.272;8.590;2023-06-14T06:09:35;23.86;41.99
70246;SHT30;57637;49.272;8.590;2023-06-14T06:12:01;23.14;44.06
70246;SHT30;57637;49.272;8.590;2023-06-14T06:14:26;22.05;45.80
70246;SHT30;57637;49.272;8.590;2023-06-14T06:16:52;21.74;47.14
70246;SHT30;57637;49.272;8.590;2023-06-14T06:19:17;21.61;47.09
70246;SHT30;57637;49.272;8.590;2023-06-14T06:21:43;22.45;45.60
70246;SHT30;57637;49.272;8.590;2023-06-14T06:24:08;21.67;46.59
70246;SHT30;57637;49.272;8.590;2023-06-14T06:26:34;22.02;46.67
70246;SHT30;57637;49.272;8.590;2023-06-14T06:28:59;21.42;47.40
70246;SHT30;57637;49.272;8.590;2023-06-14T06:31:25;21.20;46.94
70246;SHT30;57637;49.272;8.590;2023-06-14T06:33:52;20.94;48.65
70246;SHT30;57637;49.272;8.590;2023-06-14T06:36:19;21.42;47.21
70246;SHT30;57637;49.272;8.590;2023-06-14T06:38:45;21.16;48.08
70246;SHT30;57637;49.272;8.590;2023-06-14T06:41:10;21.87;47.48
70246;SHT30;57637;49.272;8.590;2023-06-14T06:43:35;22.22;46.17
70246;SHT30;57637;49.272;8.590;2023-06-14T06:46:01;21.66;46.28
70246;SHT30;57637;49.272;8.590;2023-06-14T06:48:27;21.02;47.37
70246;SHT30;57637;49.272;8.590;2023-06-14T06:50:52;21.20;47.26
70246;SHT30;57637;49.272;8.590;2023-06-14T06:53:18;20.88;47.16
70246;SHT30;57637;49.272;8.590;2023-06-14T06:55:44;21.10;46.86
70246;SHT30;57637;49.272;8.590;2023-06-14T06:58:09;21.36;47.06
70246;SHT30;57637;49.272;8.590;2023-06-14T07:00:35;21.53;47.00
70246;SHT30;57637;49.272;8.590;2023-06-14T07:03:00;20.75;47.31
70246;SHT30;57637;49.272;8.590;2023-06-14T07:05:26;21.49;47.27
70246;SHT30;57637;49.272;8.590;2023-06-14T07:07:51;21.30;46.67
70246;SHT30;57637;49.272;8.590;2023-06-14T07:10:17;21.13;47.43
70246;SHT30;57637;49.272;8.590;2023-06-14T07:12:43;21.76;46.11
70246;SHT30;57637;49.272;8.590;2023-06-14T07:15:08;21.78;45.48
70246;SHT30;57637;49.272;8.590;2023-06-14T07:17:34;21.32;45.70
70246;SHT30;57637;49.272;8.590;2023-06-14T07:20:01;21.13;46.14
70246;SHT30;57637;49.272;8.590;2023-06-14T07:22:37;21.40;45.86
70246;SHT30;57637;49.272;8.590;2023-06-14T07:25:07;21.22;46.61
70246;SHT30;57637;49.272;8.590;2023-06-14T07:27:39;21.49;46.54
70246;SHT30;57637;49.272;8.590;2023-06-14T07:30:05;21.84;45.93
70246;SHT30;57637;49.272;8.590;2023-06-14T07:32:34;21.68;45.47
70246;SHT30;57637;49.272;8.590;2023-06-14T07:34:59;21.74;45.93
70246;SHT30;57637;49.272;8.590;2023-06-14T07:37:24;21.83;45.53
70246;SHT30;57637;49.272;8.590;2023-06-14T07:39:50;21.77;45.03
70246;SHT30;57637;49.272;8.590;2023-06-14T07:42:15;21.78;44.92
70246;SHT30;57637;49.272;8.590;2023-06-14T07:44:41;21.96;45.07
70246;SHT30;57637;49.272;8.590;2023-06-14T07:47:06;21.88;44.98
70246;SHT30;57637;49.272;8.590;2023-06-14T07:49:31;21.97;44.96
70246;SHT30;57637;49.272;8.590;2023-06-14T07:51:57;21.94;45.12
70246;SHT30;57637;49.272;8.590;2023-06-14T07:54:23;22.14;44.68
70246;SHT30;57637;49.272;8.590;2023-06-14T07:56:51;22.32;43.74
70246;SHT30;57637;49.272;8.590;2023-06-14T07:59:17;22.32;44.78
70246;SHT30;57637;49.272;8.590;2023-06-14T08:01:42;22.45;44.15
70246;SHT30;57637;49.272;8.590;2023-06-14T08:04:12;22.48;43.98
70246;SHT30;57637;49.272;8.590;2023-06-14T08:06:38;22.53;43.79
70246;SHT30;57637;49.272;8.590;2023-06-14T08:09:04;22.42;44.09
70246;SHT30;57637;49.272;8.590;2023-06-14T08:11:30;22.53;44.36
70246;SHT30;57637;49.272;8.590;2023-06-14T08:13:55;22.83;43.53
70246;SHT30;57637;49.272;8.590;2023-06-14T08:16:21;22.69;43.27
70246;SHT30;57637;49.272;8.590;2023-06-14T08:18:46;22.34;43.54
70246;SHT30;57637;49.272;8.590;2023-06-14T08:21:11;22.51;43.19
70246;SHT30;57637;49.272;8.590;2023-06-14T08:23:38;22.82;43.17
70246;SHT30;57637;49.272;8.590;2023-06-14T08:26:04;22.28;43.99
70246;SHT30;57637;49.272;8.590;2023-06-14T08:28:29;22.73;43.93
70246;SHT30;57637;49.272;8.590;2023-06-14T08:30:54;23.20;43.79
70246;SHT30;57637;49.272;8.590;2023-06-14T08:33:21;22.75;44.01
70246;SHT30;57637;49.272;8.590;2023-06-14T08:35:46;23.14;42.54
70246;SHT30;57637;49.272;8.590;2023-06-14T08:38:11;22.85;43.48
70246;SHT30;57637;49.272;8.590;2023-06-14T08:40:37;23.19;42.40
70246;SHT30;57637;49.272;8.590;2023-06-14T08:43:03;22.99;42.57
70246;SHT30;57637;49.272;8.590;2023-06-14T08:45:29;22.86;42.40
70246;SHT30;57637;49.272;8.590;2023-06-14T08:47:54;23.31;42.13
70246;SHT30;57637;49.272;8.590;2023-06-14T08:50:24;23.00;41.48
70246;SHT30;57637;49.272;8.590;2023-06-14T08:52:55;23.31;41.35
70246;SHT30;57637;49.272;8.590;2023-06-14T08:55:25;23.24;42.33
70246;SHT30;57637;49.272;8.590;2023-06-14T08:57:55;23.26;42.28
70246;SHT30;57637;49.272;8.590;2023-06-14T09:00:24;23.23;42.02
70246;SHT30;57637;49.272;8.590;2023-06-14T09:02:52;23.30;41.80
70246;SHT30;57637;49.272;8.590;2023-06-14T09:05:26;23.14;41.54
70246;SHT30;57637;49.272;8.590;2023-06-14T09:07:52;23.39;42.01
70246;SHT30;57637;49.272;8.590;2023-06-14T09:10:20;23.54;41.11
70246;SHT30;57637;49.272;8.590;2023-06-14T09:12:46;24.39;40.93
70246;SHT30;57637;49.272;8.590;2023-06-14T09:15:12;24.75;42.43
70246;SHT30;57637;49.272;8.590;2023-06-14T09:17:39;25.04;41.07
70246;SHT30;57637;49.272;8.590;2023-06-14T09:20:05;23.95;42.21
70246;SHT30;57637;49.272;8.590;2023-06-14T09:22:36;23.89;41.71
70246;SHT30;57637;49.272;8.590;2023-06-14T09:25:02;24.46;42.20
70246;SHT30;57637;49.272;8.590;2023-06-14T09:27:29;25.13;41.22
70246;SHT30;57637;49.272;8.590;2023-06-14T09:29:54;25.21;40.72
70246;SHT30;57637;49.272;8.590;2023-06-14T09:32:23;23.77;42.39
70246;SHT30;57637;49.272;8.590;2023-06-14T09:34:48;23.55;42.88
70246;SHT30;57637;49.272;8.590;2023-06-14T09:37:29;24.06;41.38
70246;SHT30;57637;49.272;8.590;2023-06-14T09:39:56;23.37;41.66
70246;SHT30;57637;49.272;8.590;2023-06-14T09:42:22;23.84;42.03
70246;SHT30;57637;49.272;8.590;2023-06-14T09:44:50;23.81;41.61
70246;SHT30;57637;49.272;8.590;2023-06-14T09:47:17;23.73;41.26
70246;SHT30;57637;49.272;8.590;2023-06-14T09:49:42;24.66;40.08
70246;SHT30;57637;49.272;8.590;2023-06-14T09:52:15;24.35;41.03
70246;SHT30;57637;49.272;8.590;2023-06-14T09:54:45;24.21;41.65
70246;SHT30;57637;49.272;8.590;2023-06-14T09:57:12;23.75;42.01
70246;SHT30;57637;49.272;8.590;2023-06-14T09:59:46;24.73;40.82
70246;SHT30;57637;49.272;8.590;2023-06-14T10:04:50;25.02;41.07
70246;SHT30;57637;49.272;8.590;2023-06-14T10:07:30;24.66;40.89
70246;SHT30;57637;49.272;8.590;2023-06-14T10:10:00;25.38;40.29
70246;SHT30;57637;49.272;8.590;2023-06-14T10:12:26;24.98;39.97
70246;SHT30;57637;49.272;8.590;2023-06-14T10:14:52;25.35;39.40
70246;SHT30;57637;49.272;8.590;2023-06-14T10:17:25;25.08;39.85
70246;SHT30;57637;49.272;8.590;2023-06-14T10:20:03;25.38;38.83
70246;SHT30;57637;49.272;8.590;2023-06-14T10:22:42;24.91;39.02
70246;SHT30;57637;49.272;8.590;2023-06-14T10:25:25;24.35;39.45
70246;SHT30;57637;49.272;8.590;2023-06-14T10:27:53;24.55;39.54
70246;SHT30;57637;49.272;8.590;2023-06-14T10:30:27;24.24;39.45
70246;SHT30;57637;49.272;8.590;2023-06-14T10:33:05;24.32;39.23
70246;SHT30;57637;49.272;8.590;2023-06-14T10:35:32;24.28;39.57
70246;SHT30;57637;49.272;8.590;2023-06-14T10:38:07;24.45;38.73
70246;SHT30;57637;49.272;8.590;2023-06-14T10:40:34;24.53;38.85
70246;SHT30;57637;49.272;8.590;2023-06-14T10:42:59;24.00;40.06
70246;SHT30;57637;49.272;8.590;2023-06-14T10:45:25;24.21;39.62
70246;SHT30;57637;49.272;8.590;2023-06-14T10:47:50;24.22;39.77
70246;SHT30;57637;49.272;8.590;2023-06-14T10:50:17;23.93;39.68
70246;SHT30;57637;49.272;8.590;2023-06-14T10:52:53;24.70;38.57
70246;SHT30;57637;49.272;8.590;2023-06-14T10:55:19;25.51;37.45
70246;SHT30;57637;49.272;8.590;2023-06-14T10:57:48;26.18;37.22
70246;SHT30;57637;49.272;8.590;2023-06-14T11:00:21;25.55;37.26
70246;SHT30;57637;49.272;8.590;2023-06-14T11:05:41;24.42;37.87
70246;SHT30;57637;49.272;8.590;2023-06-14T11:10:54;24.56;37.67
70246;SHT30;57637;49.272;8.590;2023-06-14T11:13:25;25.03;37.21
70246;SHT30;57637;49.272;8.590;2023-06-14T11:15:51;25.00;36.92
70246;SHT30;57637;49.272;8.590;2023-06-14T11:18:18;25.27;36.95
70246;SHT30;57637;49.272;8.590;2023-06-14T11:20:49;25.03;36.06
70246;SHT30;57637;49.272;8.590;2023-06-14T11:23:14;25.30;36.38
70246;SHT30;57637;49.272;8.590;2023-06-14T11:25:40;24.75;37.01
70246;SHT30;57637;49.272;8.590;2023-06-14T11:28:05;24.62;37.74
70246;SHT30;57637;49.272;8.590;2023-06-14T11:30:30;24.19;37.59
70246;SHT30;57637;49.272;8.590;2023-06-14T11:32:56;24.35;37.46
70246;SHT30;57637;49.272;8.590;2023-06-14T11:35:22;24.59;37.98
70246;SHT30;57637;49.272;8.590;2023-06-14T11:37:49;24.51;40.57
70246;SHT30;57637;49.272;8.590;2023-06-14T11:40:18;24.87;37.38
70246;SHT30;57637;49.272;8.590;2023-06-14T11:42:43;24.86;37.54
70246;SHT30;57637;49.272;8.590;2023-06-14T11:45:09;25.31;36.88
70246;SHT30;57637;49.272;8.590;2023-06-14T11:47:36;25.06;36.44
70246;SHT30;57637;49.272;8.590;2023-06-14T11:50:03;24.83;35.95
70246;SHT30;57637;49.272;8.590;2023-06-14T11:52:31;24.53;37.07
70246;SHT30;57637;49.272;8.590;2023-06-14T11:54:57;24.53;36.66
70246;SHT30;57637;49.272;8.590;2023-06-14T11:57:22;24.96;36.19
70246;SHT30;57637;49.272;8.590;2023-06-14T11:59:48;25.28;36.53
70246;SHT30;57637;49.272;8.590;2023-06-14T12:02:17;24.90;37.28
70246;SHT30;57637;49.272;8.590;2023-06-14T12:04:44;24.40;37.32
70246;SHT30;57637;49.272;8.590;2023-06-14T12:07:15;24.65;37.53
70246;SHT30;57637;49.272;8.590;2023-06-14T12:12:16;24.40;37.74
70246;SHT30;57637;49.272;8.590;2023-06-14T12:14:42;24.82;36.63
70246;SHT30;57637;49.272;8.590;2023-06-14T12:17:07;24.96;36.60
70246;SHT30;57637;49.272;8.590;2023-06-14T12:19:33;25.16;36.46
70246;SHT30;57637;49.272;8.590;2023-06-14T12:22:07;24.83;36.56
70246;SHT30;57637;49.272;8.590;2023-06-14T12:24:35;24.77;37.02
70246;SHT30;57637;49.272;8.590;2023-06-14T12:27:00;25.27;36.68
70246;SHT30;57637;49.272;8.590;2023-06-14T12:29:28;25.26;36.51
70246;SHT30;57637;49.272;8.590;2023-06-14T12:31:57;24.94;36.71
70246;SHT30;57637;49.272;8.590;2023-06-14T12:34:26;24.63;37.36
70246;SHT30;57637;49.272;8.590;2023-06-14T12:36:55;24.76;37.16
70246;SHT30;57637;49.272;8.590;2023-06-14T12:39:21;25.30;36.73
70246;SHT30;57637;49.272;8.590;2023-06-14T12:41:47;25.31;36.32
70246;SHT30;57637;49.272;8.590;2023-06-14T12:44:13;25.11;37.39
70246;SHT30;57637;49.272;8.590;2023-06-14T12:46:39;24.60;37.71
70246;SHT30;57637;49.272;8.590;2023-06-14T12:49:08;24.77;37.06
70246;SHT30;57637;49.272;8.590;2023-06-14T12:51:34;24.70;36.52
70246;SHT30;57637;49.272;8.590;2023-06-14T12:53:59;24.79;36.38
70246;SHT30;57637;49.272;8.590;2023-06-14T12:56:25;25.00;35.78
70246;SHT30;57637;49.272;8.590;2023-06-14T12:58:51;25.40;35.49
70246;SHT30;57637;49.272;8.590;2023-06-14T13:01:17;25.71;34.86
70246;SHT30;57637;49.272;8.590;2023-06-14T13:03:43;25.64;35.35
70246;SHT30;57637;49.272;8.590;2023-06-14T13:06:08;25.42;34.88
70246;SHT30;57637;49.272;8.590;2023-06-14T13:08:33;24.96;35.24
70246;SHT30;57637;49.272;8.590;2023-06-14T13:10:59;25.35;35.57
70246;SHT30;57637;49.272;8.590;2023-06-14T13:13:25;25.10;36.47
70246;SHT30;57637;49.272;8.590;2023-06-14T13:15:52;25.04;36.81
70246;SHT30;57637;49.272;8.590;2023-06-14T13:18:17;25.04;36.56
70246;SHT30;57637;49.272;8.590;2023-06-14T13:20:42;24.91;36.76
70246;SHT30;57637;49.272;8.590;2023-06-14T13:23:08;24.66;37.56
70246;SHT30;57637;49.272;8.590;2023-06-14T13:25:34;24.93;36.35
70246;SHT30;57637;49.272;8.590;2023-06-14T13:28:01;24.87;35.13
70246;SHT30;57637;49.272;8.590;2023-06-14T13:30:27;25.11;35.55
70246;SHT30;57637;49.272;8.590;2023-06-14T13:32:52;25.75;35.64
70246;SHT30;57637;49.272;8.590;2023-06-14T13:35:20;25.49;35.29
70246;SHT30;57637;49.272;8.590;2023-06-14T13:37:46;25.57;34.81
70246;SHT30;57637;49.272;8.590;2023-06-14T13:40:11;25.51;35.86
70246;SHT30;57637;49.272;8.590;2023-06-14T13:42:37;25.62;35.94
70246;SHT30;57637;49.272;8.590;2023-06-14T13:45:03;25.59;36.01
70246;SHT30;57637;49.272;8.590;2023-06-14T13:47:29;25.30;36.25
70246;SHT30;57637;49.272;8.590;2023-06-14T13:49:56;24.67;36.19
70246;SHT30;57637;49.272;8.590;2023-06-14T13:52:21;24.62;36.72
70246;SHT30;57637;49.272;8.590;2023-06-14T13:54:47;24.77;36.22
70246;SHT30;57637;49.272;8.590;2023-06-14T13:57:13;24.52;36.52
70246;SHT30;57637;49.272;8.590;2023-06-14T13:59:39;25.13;35.49
70246;SHT30;57637;49.272;8.590;2023-06-14T14:02:05;25.03;36.21
70246;SHT30;57637;49.272;8.590;2023-06-14T14:04:31;25.04;36.72
70246;SHT30;57637;49.272;8.590;2023-06-14T14:06:56;25.52;35.84
70246;SHT30;57637;49.272;8.590;2023-06-14T14:09:22;25.67;35.37
70246;SHT30;57637;49.272;8.590;2023-06-14T14:11:47;25.72;35.81
70246;SHT30;57637;49.272;8.590;2023-06-14T14:14:13;25.45;35.65
70246;SHT30;57637;49.272;8.590;2023-06-14T14:16:39;25.04;35.83
70246;SHT30;57637;49.272;8.590;2023-06-14T14:19:04;25.21;35.69
70246;SHT30;57637;49.272;8.590;2023-06-14T14:21:31;24.94;36.32
70246;SHT30;57637;49.272;8.590;2023-06-14T14:23:57;24.91;37.07
70246;SHT30;57637;49.272;8.590;2023-06-14T14:26:22;25.07;37.01
70246;SHT30;57637;49.272;8.590;2023-06-14T14:28:48;24.42;37.69
70246;SHT30;57637;49.272;8.590;2023-06-14T14:31:14;24.55;37.40
70246;SHT30;57637;49.272;8.590;2023-06-14T14:33:39;24.36;36.72
70246;SHT30;57637;49.272;8.590;2023-06-14T14:36:05;24.70;36.49
70246;SHT30;57637;49.272;8.590;2023-06-14T14:38:31;25.10;36.71
70246;SHT30;57637;49.272;8.590;2023-06-14T14:40:57;24.98;36.86
70246;SHT30;57637;49.272;8.590;2023-06-14T14:43:23;25.31;36.54
70246;SHT30;57637;49.272;8.590;2023-06-14T14:45:48;25.11;36.59
70246;SHT30;57637;49.272;8.590;2023-06-14T14:48:13;25.48;35.30
70246;SHT30;57637;49.272;8.590;2023-06-14T14:50:39;24.98;35.11
70246;SHT30;57637;49.272;8.590;2023-06-14T14:53:05;25.52;34.56
70246;SHT30;57637;49.272;8.590;2023-06-14T14:55:31;25.41;34.98
70246;SHT30;57637;49.272;8.590;2023-06-14T14:57:59;25.93;35.78
70246;SHT30;57637;49.272;8.590;2023-06-14T15:00:25;25.68;34.33
70246;SHT30;57637;49.272;8.590;2023-06-14T15:02:51;25.30;34.57
70246;SHT30;57637;49.272;8.590;2023-06-14T15:05:16;25.06;34.42
70246;SHT30;57637;49.272;8.590;2023-06-14T15:07:42;25.14;34.25
70246;SHT30;57637;49.272;8.590;2023-06-14T15:10:08;25.28;34.62
70246;SHT30;57637;49.272;8.590;2023-06-14T15:12:34;25.21;35.06
70246;SHT30;57637;49.272;8.590;2023-06-14T15:15:00;25.69;35.71
70246;SHT30;57637;49.272;8.590;2023-06-14T15:17:25;25.93;35.93
70246;SHT30;57637;49.272;8.590;2023-06-14T15:19:51;25.54;36.10
70246;SHT30;57637;49.272;8.590;2023-06-14T15:22:17;25.40;36.02
70246;SHT30;57637;49.272;8.590;2023-06-14T15:24:43;25.37;36.61
70246;SHT30;57637;49.272;8.590;2023-06-14T15:27:08;25.59;36.18
70246;SHT30;57637;49.272;8.590;2023-06-14T15:29:35;25.58;35.52
70246;SHT30;57637;49.272;8.590;2023-06-14T15:32:01;25.72;35.82
70246;SHT30;57637;49.272;8.590;2023-06-14T15:34:26;25.93;35.60
70246;SHT30;57637;49.272;8.590;2023-06-14T15:36:52;25.65;36.06
70246;SHT30;57637;49.272;8.590;2023-06-14T15:39:17;25.27;36.39
70246;SHT30;57637;49.272;8.590;2023-06-14T15:41:43;25.00;37.21